createdAt,value
2022-09-23T00:00:05.690Z,50.02
2022-09-23T00:05:53.597Z,49.99
2022-09-23T00:08:20.882Z,50.08
2022-09-23T00:11:19.568Z,49.86
2022-09-23T00:13:48.912Z,49.87
2022-09-23T00:16:19.617Z,50.07
2022-09-23T00:18:47.227Z,49.96
2022-09-23T00:21:14.734Z,50.35
2022-09-23T00:23:42.970Z,49.96
2022-09-23T00:26:12.862Z,49.73
2022-09-23T00:28:40.704Z,49.96
2022-09-23T00:31:11.342Z,49.88
2022-09-23T00:33:40.638Z,49.74
2022-09-23T00:36:11.148Z,49.61
2022-09-23T00:38:39.016Z,49.84
2022-09-23T00:41:06.554Z,49.85
2022-09-23T00:43:42.319Z,49.91
2022-09-23T00:46:12.238Z,49.73
2022-09-23T00:48:41.625Z,49.84
2022-09-23T00:51:10.500Z,49.84
2022-09-23T00:53:38.581Z,50.17
2022-09-23T00:56:10.242Z,50.23
2022-09-23T00:58:40.231Z,50.25
2022-09-23T01:01:07.825Z,50.32
2022-09-23T01:03:35.129Z,50.40
2022-09-23T01:06:02.415Z,50.80
2022-09-23T01:08:29.809Z,50.98
2022-09-23T01:11:01.126Z,50.84
2022-09-23T01:14:03.479Z,51.07
2022-09-23T01:16:34.207Z,51.31
2022-09-23T01:19:08.464Z,51.34
2022-09-23T01:21:52.032Z,51.13
2022-09-23T01:24:43.466Z,51.50
2022-09-23T01:27:29.506Z,51.45
2022-09-23T01:30:07.030Z,51.48
2022-09-23T01:32:52.758Z,51.53
2022-09-23T01:35:25.811Z,50.98
2022-09-23T01:37:55.875Z,51.90
2022-09-23T01:40:32.582Z,51.61
2022-09-23T01:43:28.302Z,51.49
2022-09-23T01:45:59.490Z,51.72
2022-09-23T01:48:32.147Z,51.85
2022-09-23T01:51:11.150Z,51.79
2022-09-23T01:53:50.514Z,51.88
2022-09-23T01:56:27.085Z,52.02
2022-09-23T01:59:36.379Z,51.81
2022-09-23T02:02:51.930Z,52.21
2022-09-23T02:05:26.038Z,52.04
2022-09-23T02:07:58.088Z,52.05
2022-09-23T02:10:29.450Z,51.97
2022-09-23T02:13:05.379Z,52.09
2022-09-23T02:15:35.762Z,51.89
2022-09-23T02:18:09.509Z,52.29
2022-09-23T02:20:39.598Z,52.25
2022-09-23T02:23:13.148Z,52.41
2022-09-23T02:25:47.103Z,52.35
2022-09-23T02:28:34.440Z,52.48
2022-09-23T02:31:11.989Z,52.87
2022-09-23T02:34:02.560Z,53.15
2022-09-23T02:36:38.012Z,53.10
2022-09-23T02:39:09.039Z,53.01
2022-09-23T02:42:02.886Z,52.82
2022-09-23T02:44:32.095Z,52.98
2022-09-23T02:46:59.603Z,52.50
2022-09-23T02:49:29.441Z,52.63
2022-09-23T02:51:58.033Z,52.83
2022-09-23T02:54:28.288Z,53.15
2022-09-23T02:56:55.584Z,52.78
2022-09-23T02:59:23.497Z,53.09
2022-09-23T03:02:32.659Z,52.72
2022-09-23T03:05:09.094Z,52.78
2022-09-23T03:08:13.973Z,52.69
2022-09-23T03:11:05.617Z,52.42
2022-09-23T03:13:57.166Z,52.52
2022-09-23T03:16:34.839Z,52.39
2022-09-23T03:19:04.962Z,52.18
2022-09-23T03:21:37.133Z,52.04
2022-09-23T03:24:06.808Z,51.82
2022-09-23T03:26:36.186Z,52.28
2022-09-23T03:29:09.408Z,52.43
2022-09-23T03:31:37.680Z,52.36
2022-09-23T03:34:10.517Z,52.42
2022-09-23T03:36:53.793Z,52.82
2022-09-23T03:39:40.898Z,52.41
2022-09-23T03:42:24.571Z,52.50
2022-09-23T03:44:57.332Z,52.35
2022-09-23T03:47:29.052Z,52.32
2022-09-23T03:49:56.828Z,52.39
2022-09-23T03:52:25.498Z,52.85
2022-09-23T03:55:07.252Z,52.79
2022-09-23T03:57:34.460Z,52.93
2022-09-23T04:00:01.889Z,52.73
2022-09-23T04:02:39.120Z,52.72
2022-09-23T04:05:10.649Z,52.96
2022-09-23T04:07:37.907Z,53.22
2022-09-23T04:10:06.851Z,53.19
2022-09-23T04:12:34.420Z,53.37
2022-09-23T04:15:01.743Z,53.30
2022-09-23T04:17:28.964Z,53.35
2022-09-23T04:19:56.159Z,53.52
2022-09-23T04:22:23.492Z,53.24
2022-09-23T04:24:51.358Z,53.47
2022-09-23T04:27:18.533Z,53.48
2022-09-23T04:29:45.707Z,53.49
2022-09-23T04:32:13.052Z,52.97
2022-09-23T04:34:40.284Z,53.00
2022-09-23T04:37:07.538Z,52.79
2022-09-23T04:39:34.752Z,52.75
2022-09-23T04:42:01.942Z,52.64
2022-09-23T04:44:29.505Z,52.23
2022-09-23T04:46:56.817Z,52.69
2022-09-23T04:49:24.347Z,52.69
2022-09-23T04:51:51.652Z,52.67
2022-09-23T04:54:19.064Z,52.65
2022-09-23T04:56:46.362Z,52.71
2022-09-23T04:59:13.619Z,52.63
2022-09-23T05:01:41.623Z,52.61
2022-09-23T05:04:10.995Z,52.12
2022-09-23T05:06:38.295Z,52.19
2022-09-23T05:09:07.818Z,52.78
2022-09-23T05:11:35.327Z,52.15
2022-09-23T05:14:02.599Z,52.70
2022-09-23T05:16:29.973Z,52.83
2022-09-23T05:18:58.016Z,52.98
2022-09-23T05:21:28.355Z,52.94
2022-09-23T05:23:58.882Z,52.81
2022-09-23T05:26:29.073Z,52.86
2022-09-23T05:28:56.661Z,52.89
2022-09-23T05:31:26.221Z,53.21
2022-09-23T05:33:57.328Z,52.87
2022-09-23T05:36:25.726Z,52.98
2022-09-23T05:38:53.323Z,53.13
2022-09-23T05:41:25.288Z,53.08
2022-09-23T05:44:48.065Z,53.08
2022-09-23T05:47:13.657Z,52.99
2022-09-23T05:49:58.689Z,53.05
2022-09-23T05:52:26.657Z,53.55
2022-09-23T05:54:53.826Z,53.65
2022-09-23T05:57:21.522Z,53.96
2022-09-23T05:59:48.804Z,53.71
2022-09-23T06:02:16.236Z,53.97
2022-09-23T06:04:44.156Z,53.88
2022-09-23T06:07:11.852Z,54.13
2022-09-23T06:09:39.419Z,54.01
2022-09-23T06:12:07.132Z,53.98
2022-09-23T06:14:34.441Z,54.61
2022-09-23T06:17:01.985Z,54.90
2022-09-23T06:19:29.152Z,54.69
2022-09-23T06:21:56.363Z,55.07
2022-09-23T06:24:32.732Z,55.13
2022-09-23T06:27:00.984Z,54.83
2022-09-23T06:29:30.766Z,54.88
2022-09-23T06:31:59.733Z,54.62
2022-09-23T06:34:27.371Z,54.02
2022-09-23T06:36:55.570Z,54.08
2022-09-23T06:39:22.746Z,53.94
2022-09-23T06:41:51.055Z,53.75
2022-09-23T06:44:18.253Z,53.87
2022-09-23T06:46:45.518Z,53.93
2022-09-23T06:49:23.773Z,54.12
2022-09-23T06:51:51.106Z,55.31
2022-09-23T06:54:18.293Z,56.12
2022-09-23T06:56:47.740Z,54.58
2022-09-23T06:59:16.969Z,56.63
2022-09-23T07:01:45.499Z,56.30
2022-09-23T07:04:13.074Z,55.83
2022-09-23T07:06:40.815Z,55.46
2022-09-23T07:09:08.943Z,54.45
2022-09-23T07:11:36.235Z,55.36
2022-09-23T07:14:03.634Z,55.14
2022-09-23T07:16:32.994Z,54.32
2022-09-23T07:19:00.361Z,53.49
2022-09-23T07:21:27.938Z,54.04
2022-09-23T07:23:58.031Z,54.47
2022-09-23T07:26:25.479Z,54.42
2022-09-23T07:28:56.847Z,53.25
2022-09-23T07:31:36.342Z,53.59
2022-09-23T07:34:07.607Z,53.62
2022-09-23T07:36:37.365Z,53.80
2022-09-23T07:39:05.142Z,53.78
2022-09-23T07:41:33.382Z,51.96
2022-09-23T07:44:01.547Z,53.50
2022-09-23T07:46:31.649Z,53.43
2022-09-23T07:48:59.246Z,53.41
2022-09-23T07:51:33.378Z,54.16
2022-09-23T07:54:03.361Z,53.74
2022-09-23T07:56:30.914Z,53.23
2022-09-23T07:59:01.002Z,53.95
2022-09-23T08:01:29.426Z,53.94
2022-09-23T08:03:58.221Z,53.48
2022-09-23T08:06:25.543Z,53.24
2022-09-23T08:08:53.566Z,51.96
2022-09-23T08:11:21.114Z,52.33
2022-09-23T08:13:48.417Z,51.78
2022-09-23T08:16:15.754Z,52.43
2022-09-23T08:18:46.634Z,52.68
2022-09-23T08:21:19.896Z,53.48
2022-09-23T08:23:47.710Z,52.63
2022-09-23T08:26:20.916Z,52.58
2022-09-23T08:28:48.693Z,51.38
2022-09-23T08:31:16.053Z,51.47
2022-09-23T08:33:43.650Z,51.09
2022-09-23T08:36:11.334Z,50.49
2022-09-23T08:38:38.580Z,50.89
2022-09-23T08:41:22.838Z,50.40
2022-09-23T08:43:53.735Z,49.74
2022-09-23T08:46:28.097Z,49.90
2022-09-23T08:48:55.939Z,49.77
2022-09-23T08:51:31.664Z,49.53
2022-09-23T08:53:59.411Z,48.71
2022-09-23T08:56:28.823Z,49.04
2022-09-23T08:59:19.150Z,46.80
2022-09-23T09:01:48.947Z,47.65
2022-09-23T09:04:36.120Z,48.46
2022-09-23T09:07:24.566Z,48.42
2022-09-23T09:10:16.848Z,48.64
2022-09-23T09:12:54.414Z,48.24
2022-09-23T09:15:25.268Z,48.08
2022-09-23T09:18:09.125Z,48.28
2022-09-23T09:20:49.919Z,48.12
2022-09-23T09:23:31.969Z,48.13
2022-09-23T09:26:01.717Z,47.78
2022-09-23T09:28:51.202Z,47.91
2022-09-23T09:31:42.662Z,48.19
2022-09-23T09:34:40.708Z,47.97
2022-09-23T09:37:16.015Z,47.37
2022-09-23T09:39:43.516Z,47.66
2022-09-23T09:42:20.326Z,47.52
2022-09-23T09:44:58.573Z,48.14
2022-09-23T09:47:34.929Z,47.97
2022-09-23T09:50:21.472Z,47.88
2022-09-23T09:52:49.034Z,47.20
2022-09-23T09:55:25.375Z,46.81
2022-09-23T09:58:01.689Z,47.04
2022-09-23T10:00:29.168Z,46.63
2022-09-23T10:03:01.803Z,47.30
2022-09-23T10:05:34.852Z,46.92
2022-09-23T10:08:20.762Z,46.57
2022-09-23T10:11:15.420Z,45.98
2022-09-23T10:14:01.558Z,44.73
2022-09-23T10:16:34.224Z,44.54
2022-09-23T10:19:16.127Z,44.67
2022-09-23T10:21:43.652Z,44.53
2022-09-23T10:24:23.573Z,44.39
2022-09-23T10:26:58.712Z,45.45
2022-09-23T10:29:30.858Z,44.40
2022-09-23T10:32:18.600Z,44.14
2022-09-23T10:34:49.517Z,44.13
2022-09-23T10:37:30.680Z,45.25
2022-09-23T10:40:17.327Z,45.45
2022-09-23T10:43:15.832Z,44.03
2022-09-23T10:46:09.266Z,44.02
2022-09-23T10:48:48.963Z,43.12
2022-09-23T10:51:27.376Z,43.88
2022-09-23T10:54:09.792Z,42.64
2022-09-23T10:56:43.442Z,44.38
2022-09-23T10:59:43.455Z,42.67
2022-09-23T11:02:53.744Z,40.78
2022-09-23T11:05:26.757Z,41.79
2022-09-23T11:08:06.153Z,42.00
2022-09-23T11:10:48.565Z,41.71
2022-09-23T11:13:42.762Z,42.29
2022-09-23T11:17:04.234Z,40.99
2022-09-23T11:19:57.740Z,40.88
2022-09-23T11:22:24.820Z,40.58
2022-09-23T11:25:05.253Z,41.07
2022-09-23T11:27:54.282Z,40.68
2022-09-23T11:30:21.509Z,41.21
2022-09-23T11:33:14.061Z,40.14
2022-09-23T11:36:21.411Z,40.21
2022-09-23T11:38:50.107Z,39.60
2022-09-23T11:41:19.554Z,39.12
2022-09-23T11:43:52.253Z,39.30
2022-09-23T11:46:25.605Z,40.40
2022-09-23T11:49:08.248Z,39.34
2022-09-23T11:51:45.628Z,39.55
2022-09-23T11:54:36.231Z,40.36
2022-09-23T11:57:06.820Z,39.41
2022-09-23T11:59:49.956Z,38.32
2022-09-23T12:02:21.238Z,38.45
2022-09-23T12:04:58.617Z,37.71
2022-09-23T12:07:40.812Z,39.42
2022-09-23T12:10:09.291Z,39.22
2022-09-23T12:12:57.408Z,37.79
2022-09-23T12:15:37.437Z,38.70
2022-09-23T12:18:29.042Z,38.02
2022-09-23T12:21:08.474Z,38.00
2022-09-23T12:23:59.236Z,37.25
2022-09-23T12:26:27.648Z,37.97
2022-09-23T12:29:00.773Z,38.37
2022-09-23T12:31:33.081Z,37.81
2022-09-23T12:34:07.722Z,37.73
2022-09-23T12:36:35.981Z,40.05
2022-09-23T12:39:18.022Z,39.38
2022-09-23T12:41:50.712Z,37.41
2022-09-23T12:44:28.782Z,36.73
2022-09-23T12:47:14.248Z,36.72
2022-09-23T12:49:42.850Z,38.92
2022-09-23T12:52:16.077Z,36.27
2022-09-23T12:54:45.164Z,37.25
2022-09-23T12:57:12.993Z,37.51
2022-09-23T13:00:00.443Z,39.30
2022-09-23T13:02:31.543Z,37.90
2022-09-23T13:05:26.870Z,40.08
2022-09-23T13:08:05.623Z,37.80
2022-09-23T13:10:38.669Z,37.33
2022-09-23T13:13:06.368Z,37.84
2022-09-23T13:15:35.440Z,38.87
2022-09-23T13:18:21.133Z,37.78
2022-09-23T13:20:49.937Z,37.27
2022-09-23T13:23:31.311Z,37.31
2022-09-23T13:26:01.099Z,38.04
2022-09-23T13:28:37.054Z,37.09
2022-09-23T13:31:06.189Z,38.92
2022-09-23T13:33:53.188Z,39.07
2022-09-23T13:36:21.150Z,39.13
2022-09-23T13:38:48.736Z,37.81
2022-09-23T13:41:16.847Z,36.95
2022-09-23T13:43:49.775Z,37.23
2022-09-23T13:46:24.498Z,39.02
2022-09-23T13:48:56.032Z,38.05
2022-09-23T13:51:30.215Z,36.80
2022-09-23T13:53:59.369Z,39.51
2022-09-23T13:56:29.435Z,38.82
2022-09-23T13:59:20.643Z,37.91
2022-09-23T14:01:48.052Z,38.46
2022-09-23T14:04:25.330Z,38.40
2022-09-23T14:06:53.871Z,37.32
2022-09-23T14:09:24.757Z,38.20
2022-09-23T14:11:52.198Z,38.59
2022-09-23T14:14:19.665Z,38.31
2022-09-23T14:16:49.649Z,37.80
2022-09-23T14:19:18.837Z,37.60
2022-09-23T14:21:51.297Z,37.07
2022-09-23T14:24:34.584Z,36.72
2022-09-23T14:27:15.741Z,36.97
2022-09-23T14:29:44.932Z,36.06
2022-09-23T14:32:15.699Z,37.01
2022-09-23T14:34:44.195Z,37.20
2022-09-23T14:38:08.460Z,37.25
2022-09-23T14:40:50.805Z,37.98
2022-09-23T14:43:24.278Z,37.84
2022-09-23T14:45:57.367Z,37.01
2022-09-23T14:48:29.536Z,37.06
2022-09-23T14:51:01.915Z,37.45
2022-09-23T14:53:31.388Z,37.38
2022-09-23T14:56:07.950Z,36.74
2022-09-23T14:58:52.697Z,36.61
2022-09-23T15:01:35.590Z,37.15
2022-09-23T15:04:16.361Z,38.16
2022-09-23T15:07:14.440Z,38.49
2022-09-23T15:09:42.297Z,37.82
2022-09-23T15:12:18.919Z,38.03
2022-09-23T15:14:52.365Z,37.48
2022-09-23T15:17:22.707Z,37.48
2022-09-23T15:19:52.718Z,37.31
2022-09-23T15:22:21.057Z,37.69
2022-09-23T15:24:48.561Z,37.43
2022-09-23T15:27:32.244Z,36.93
2022-09-23T15:30:19.177Z,36.94
2022-09-23T15:32:46.924Z,37.74
2022-09-23T15:35:19.299Z,37.66
2022-09-23T15:37:48.764Z,37.74
2022-09-23T15:40:27.544Z,36.84
2022-09-23T15:42:59.774Z,37.31
2022-09-23T15:45:36.796Z,37.04
2022-09-23T15:48:11.264Z,36.58
2022-09-23T15:50:39.328Z,37.78
2022-09-23T15:53:07.037Z,37.98
2022-09-23T15:55:34.210Z,37.46
2022-09-23T15:58:01.448Z,37.02
2022-09-23T16:00:28.758Z,36.79
2022-09-23T16:02:56.450Z,36.04
2022-09-23T16:05:33.435Z,36.15
2022-09-23T16:08:03.795Z,36.52
2022-09-23T16:10:36.063Z,37.38
2022-09-23T16:13:04.918Z,38.36
2022-09-23T16:15:32.709Z,38.37
2022-09-23T16:18:00.569Z,38.39
2022-09-23T16:20:29.840Z,37.71
2022-09-23T16:23:00.264Z,37.80
2022-09-23T16:25:31.583Z,38.12
2022-09-23T16:27:58.797Z,38.40
2022-09-23T16:30:27.646Z,38.13
2022-09-23T16:32:55.731Z,38.22
2022-09-23T16:35:25.499Z,38.11
2022-09-23T16:37:53.136Z,37.32
2022-09-23T16:40:22.281Z,39.14
2022-09-23T16:42:52.337Z,39.92
2022-09-23T16:45:23.094Z,40.42
2022-09-23T16:47:51.848Z,38.66
2022-09-23T16:50:22.626Z,39.82
2022-09-23T16:52:56.250Z,40.06
2022-09-23T16:55:25.762Z,39.68
2022-09-23T16:57:54.078Z,40.61
2022-09-23T17:00:40.666Z,40.31
2022-09-23T17:03:26.646Z,40.52
2022-09-23T17:05:54.222Z,39.22
2022-09-23T17:08:21.828Z,40.31
2022-09-23T17:10:57.079Z,42.66
2022-09-23T17:13:26.038Z,41.36
2022-09-23T17:15:53.697Z,41.84
2022-09-23T17:18:21.681Z,42.03
2022-09-23T17:20:59.386Z,41.84
2022-09-23T17:23:27.354Z,42.22
2022-09-23T17:25:54.818Z,42.30
2022-09-23T17:28:22.239Z,41.39
2022-09-23T17:30:59.488Z,42.24
2022-09-23T17:33:28.300Z,42.58
2022-09-23T17:35:56.878Z,41.11
2022-09-23T17:38:28.723Z,40.51
2022-09-23T17:40:59.039Z,39.89
2022-09-23T17:43:27.131Z,42.88
2022-09-23T17:45:57.063Z,40.30
2022-09-23T17:48:25.557Z,41.59
2022-09-23T17:51:04.155Z,40.87
2022-09-23T17:53:32.970Z,41.14
2022-09-23T17:56:04.130Z,39.62
2022-09-23T17:58:34.002Z,39.10
2022-09-23T18:01:01.730Z,39.20
2022-09-23T18:03:30.619Z,39.94
2022-09-23T18:06:08.836Z,39.69
2022-09-23T18:08:36.054Z,40.55
2022-09-23T18:11:12.060Z,40.94
2022-09-23T18:13:39.224Z,40.43
2022-09-23T18:16:06.910Z,40.79
2022-09-23T18:18:34.214Z,41.22
2022-09-23T18:21:02.698Z,41.57
2022-09-23T18:23:29.989Z,43.42
2022-09-23T18:25:57.197Z,41.95
2022-09-23T18:28:24.572Z,41.68
2022-09-23T18:30:56.333Z,42.99
2022-09-23T18:33:24.258Z,42.15
2022-09-23T18:35:54.206Z,42.80
2022-09-23T18:38:21.472Z,41.99
2022-09-23T18:40:55.858Z,42.83
2022-09-23T18:43:25.850Z,44.06
2022-09-23T18:45:59.795Z,42.09
2022-09-23T18:48:48.563Z,42.76
2022-09-23T18:51:16.726Z,43.78
2022-09-23T18:53:46.217Z,44.66
2022-09-23T18:56:15.845Z,44.63
2022-09-23T18:58:51.514Z,44.51
2022-09-23T19:01:20.253Z,44.56
2022-09-23T19:03:47.644Z,44.51
2022-09-23T19:06:21.065Z,44.33
2022-09-23T19:08:53.024Z,44.72
2022-09-23T19:11:20.915Z,44.91
2022-09-23T19:13:56.338Z,44.99
2022-09-23T19:16:24.050Z,44.39
2022-09-23T19:18:51.794Z,45.06
2022-09-23T19:21:21.389Z,44.07
2022-09-23T19:23:53.436Z,43.34
2022-09-23T19:26:23.417Z,43.38
2022-09-23T19:28:52.506Z,43.99
2022-09-23T19:31:23.070Z,44.75
2022-09-23T19:33:56.469Z,44.04
2022-09-23T19:36:25.608Z,45.93
2022-09-23T19:38:54.331Z,45.41
2022-09-23T19:41:21.615Z,45.93
2022-09-23T19:43:49.130Z,46.16
2022-09-23T19:46:16.397Z,46.02
2022-09-23T19:48:47.121Z,45.04
2022-09-23T19:51:15.462Z,46.43
2022-09-23T19:53:43.437Z,46.30
2022-09-23T19:56:14.273Z,46.03
2022-09-23T19:58:43.048Z,46.04
2022-09-23T20:01:11.293Z,44.23
2022-09-23T20:03:39.811Z,45.87
2022-09-23T20:06:11.814Z,45.95
2022-09-23T20:08:40.056Z,45.72
2022-09-23T20:11:13.820Z,46.24
2022-09-23T20:13:46.942Z,45.70
2022-09-23T20:16:20.613Z,45.23
2022-09-23T20:19:03.991Z,45.94
2022-09-23T20:21:31.592Z,45.12
2022-09-23T20:24:04.697Z,46.17
2022-09-23T20:26:50.827Z,45.53
2022-09-23T20:29:21.202Z,45.69
2022-09-23T20:31:56.985Z,45.00
2022-09-23T20:34:24.521Z,45.70
2022-09-23T20:36:52.511Z,45.38
2022-09-23T20:39:20.442Z,45.27
2022-09-23T20:41:49.336Z,44.26
2022-09-23T20:44:17.222Z,45.00
2022-09-23T20:46:48.473Z,45.59
2022-09-23T20:49:17.288Z,45.95
2022-09-23T20:51:48.057Z,45.70
2022-09-23T20:54:18.937Z,45.74
2022-09-23T20:56:47.007Z,46.57
2022-09-23T20:59:18.233Z,46.47
2022-09-23T21:01:47.590Z,46.81
2022-09-23T21:04:17.838Z,46.27
2022-09-23T21:06:45.248Z,46.78
2022-09-23T21:09:12.587Z,46.99
2022-09-23T21:11:41.911Z,46.89
2022-09-23T21:14:09.650Z,47.29
2022-09-23T21:16:40.100Z,47.13
2022-09-23T21:19:08.226Z,46.79
2022-09-23T21:21:36.107Z,46.04
2022-09-23T21:24:31.257Z,46.59
2022-09-23T21:26:52.039Z,47.48
2022-09-23T21:29:20.838Z,47.01
2022-09-23T21:31:49.820Z,47.52
2022-09-23T21:34:17.591Z,47.69
2022-09-23T21:36:48.027Z,47.95
2022-09-23T21:39:16.642Z,48.33
2022-09-23T21:41:44.177Z,46.54
2022-09-23T21:44:12.918Z,46.30
2022-09-23T21:46:40.302Z,49.72
2022-09-23T21:49:09.497Z,49.90
2022-09-23T21:51:40.790Z,48.61
2022-09-23T21:54:15.996Z,46.81
2022-09-23T21:56:44.194Z,47.56
2022-09-23T21:59:11.895Z,49.41
2022-09-23T22:01:53.971Z,48.86
2022-09-23T22:04:22.411Z,48.70
2022-09-23T22:06:53.972Z,48.16
2022-09-23T22:09:21.818Z,48.72
2022-09-23T22:12:13.986Z,49.91
2022-09-23T22:14:43.037Z,49.53
2022-09-23T22:17:12.214Z,50.57
2022-09-23T22:19:45.931Z,53.56
2022-09-23T22:22:18.693Z,55.34
2022-09-23T22:24:49.768Z,57.30
2022-09-23T22:27:19.765Z,58.52
2022-09-23T22:30:06.077Z,59.10
2022-09-23T22:32:40.847Z,59.41
2022-09-23T22:35:10.481Z,58.95
2022-09-23T22:37:38.206Z,59.09
2022-09-23T22:40:08.433Z,59.97
2022-09-23T22:42:36.486Z,59.07
2022-09-23T22:45:05.802Z,59.63
2022-09-23T22:47:37.680Z,59.40
2022-09-23T22:50:06.217Z,60.86
2022-09-23T22:52:33.613Z,60.28
2022-09-23T22:55:01.118Z,59.82
2022-09-23T22:57:28.398Z,61.59
2022-09-23T22:59:55.595Z,62.40
2022-09-23T23:02:23.686Z,62.26
2022-09-23T23:04:51.107Z,62.26
2022-09-23T23:07:23.122Z,63.03
2022-09-23T23:09:50.951Z,62.88
2022-09-23T23:12:20.159Z,60.71
2022-09-23T23:14:48.622Z,61.48
2022-09-23T23:17:15.975Z,61.65
2022-09-23T23:19:43.308Z,61.73
2022-09-23T23:22:10.559Z,61.60
2022-09-23T23:24:37.784Z,59.95
2022-09-23T23:27:04.992Z,59.94
2022-09-23T23:29:32.351Z,60.97
2022-09-23T23:31:59.544Z,61.23
2022-09-23T23:34:27.184Z,62.41
2022-09-23T23:36:55.075Z,64.38
2022-09-23T23:39:24.932Z,64.61
2022-09-23T23:41:54.928Z,64.24
2022-09-23T23:44:24.614Z,64.22
2022-09-23T23:46:52.410Z,63.27
2022-09-23T23:49:19.855Z,63.37
2022-09-23T23:51:47.855Z,64.75
2022-09-23T23:54:15.449Z,66.00
2022-09-23T23:56:43.249Z,66.38
2022-09-23T23:59:11.307Z,66.90
